createdAt,value
2022-08-25T00:02:05.948Z,24.10
2022-08-25T00:04:35.244Z,24.10
2022-08-25T00:07:05.711Z,24.10
2022-08-25T00:09:37.311Z,24.00
2022-08-25T00:12:07.934Z,24.00
2022-08-25T00:14:37.079Z,23.90
2022-08-25T00:17:08.086Z,23.80
2022-08-25T00:19:38.079Z,23.70
2022-08-25T00:22:08.856Z,23.60
2022-08-25T00:24:36.621Z,23.60
2022-08-25T00:27:05.033Z,23.60
2022-08-25T00:29:37.976Z,23.70
2022-08-25T00:32:09.961Z,23.60
2022-08-25T00:34:40.647Z,23.50
2022-08-25T00:37:15.810Z,23.50
2022-08-25T00:39:43.113Z,23.40
2022-08-25T00:42:16.021Z,23.50
2022-08-25T00:44:44.336Z,23.40
2022-08-25T00:47:14.143Z,23.50
2022-08-25T00:49:59.646Z,23.50
2022-08-25T00:52:34.609Z,23.40
2022-08-25T00:55:08.585Z,23.40
2022-08-25T00:57:46.191Z,23.30
2022-08-25T01:00:20.613Z,23.00
2022-08-25T01:02:48.265Z,22.90
2022-08-25T01:05:16.201Z,22.90
2022-08-25T01:07:44.705Z,22.90
2022-08-25T01:10:13.512Z,22.90
2022-08-25T01:12:46.627Z,22.80
2022-08-25T01:15:17.850Z,22.70
2022-08-25T01:17:57.246Z,22.80
2022-08-25T01:20:31.456Z,22.90
2022-08-25T01:22:59.848Z,22.90
2022-08-25T01:25:56.850Z,22.80
2022-08-25T01:28:24.297Z,22.70
2022-08-25T01:30:54.430Z,22.70
2022-08-25T01:33:24.200Z,22.60
2022-08-25T01:35:54.307Z,22.60
2022-08-25T01:38:24.028Z,22.60
2022-08-25T01:40:51.425Z,22.60
2022-08-25T01:43:31.673Z,22.60
2022-08-25T01:45:59.180Z,22.50
2022-08-25T01:48:27.150Z,22.50
2022-08-25T01:50:54.430Z,22.50
2022-08-25T01:53:29.691Z,22.50
2022-08-25T01:56:09.929Z,22.50
2022-08-25T01:58:42.214Z,22.50
2022-08-25T02:01:17.971Z,22.50
2022-08-25T02:03:48.073Z,22.40
2022-08-25T02:06:29.922Z,22.40
2022-08-25T02:09:01.222Z,22.30
2022-08-25T02:11:29.085Z,22.20
2022-08-25T02:14:02.008Z,22.20
2022-08-25T02:16:32.854Z,22.20
2022-08-25T02:19:00.893Z,22.20
2022-08-25T02:21:28.418Z,22.20
2022-08-25T02:23:56.932Z,22.10
2022-08-25T02:26:24.168Z,22.10
2022-08-25T02:28:52.503Z,22.10
2022-08-25T02:31:25.659Z,22.10
2022-08-25T02:33:54.271Z,22.00
2022-08-25T02:36:24.428Z,22.00
2022-08-25T02:38:52.829Z,21.90
2022-08-25T02:41:25.168Z,21.80
2022-08-25T02:43:58.964Z,21.80
2022-08-25T02:46:29.476Z,21.80
2022-08-25T02:48:59.170Z,21.80
2022-08-25T02:51:30.012Z,21.90
2022-08-25T02:53:58.841Z,21.80
2022-08-25T02:56:26.778Z,21.80
2022-08-25T02:58:54.184Z,21.90
2022-08-25T03:01:22.149Z,21.90
2022-08-25T03:03:57.289Z,21.80
2022-08-25T03:06:25.279Z,21.80
2022-08-25T03:08:55.652Z,21.70
2022-08-25T03:11:26.449Z,21.70
2022-08-25T03:13:54.860Z,21.70
2022-08-25T03:16:22.705Z,21.70
2022-08-25T03:18:55.290Z,21.60
2022-08-25T03:21:23.363Z,21.70
2022-08-25T03:23:52.774Z,21.70
2022-08-25T03:26:38.434Z,21.60
2022-08-25T03:29:06.014Z,21.50
2022-08-25T03:31:34.675Z,21.50
2022-08-25T03:34:02.750Z,21.50
2022-08-25T03:36:30.461Z,21.50
2022-08-25T03:39:00.492Z,21.50
2022-08-25T03:41:32.755Z,21.40
2022-08-25T03:44:01.749Z,21.40
2022-08-25T03:46:44.451Z,21.40
2022-08-25T03:49:16.103Z,21.40
2022-08-25T03:51:49.367Z,21.50
2022-08-25T03:54:19.172Z,21.40
2022-08-25T03:56:46.940Z,21.40
2022-08-25T03:59:19.180Z,21.40
2022-08-25T04:01:54.467Z,21.40
2022-08-25T04:04:25.194Z,21.40
2022-08-25T04:06:53.059Z,21.30
2022-08-25T04:09:21.005Z,21.30
2022-08-25T04:11:49.224Z,21.30
2022-08-25T04:14:21.508Z,21.30
2022-08-25T04:16:49.077Z,21.30
2022-08-25T04:19:16.531Z,21.30
2022-08-25T04:21:45.905Z,21.30
2022-08-25T04:24:14.254Z,21.30
2022-08-25T04:26:47.209Z,21.30
2022-08-25T04:29:18.825Z,21.10
2022-08-25T04:31:51.838Z,21.10
2022-08-25T04:34:29.617Z,21.10
2022-08-25T04:37:05.509Z,21.00
2022-08-25T04:39:33.405Z,21.00
2022-08-25T04:42:01.226Z,21.10
2022-08-25T04:44:30.140Z,21.10
2022-08-25T04:47:00.966Z,21.10
2022-08-25T04:49:31.672Z,21.00
2022-08-25T04:51:59.260Z,21.00
2022-08-25T04:54:37.375Z,21.00
2022-08-25T04:57:07.135Z,21.10
2022-08-25T04:59:34.487Z,21.10
2022-08-25T05:02:05.463Z,21.10
2022-08-25T05:04:37.580Z,21.10
2022-08-25T05:07:05.507Z,21.00
2022-08-25T05:09:33.141Z,21.00
2022-08-25T05:12:02.212Z,21.00
2022-08-25T05:14:32.898Z,21.10
2022-08-25T05:17:02.020Z,21.10
2022-08-25T05:19:29.307Z,21.00
2022-08-25T05:21:58.661Z,21.10
2022-08-25T05:24:26.791Z,21.10
2022-08-25T05:26:54.103Z,21.20
2022-08-25T05:29:21.574Z,21.30
2022-08-25T05:31:51.873Z,21.30
2022-08-25T05:34:20.025Z,21.40
2022-08-25T05:36:51.155Z,21.40
2022-08-25T05:39:18.468Z,21.50
2022-08-25T05:41:46.267Z,21.50
2022-08-25T05:44:17.918Z,21.50
2022-08-25T05:46:49.928Z,21.50
2022-08-25T05:49:17.766Z,21.50
2022-08-25T05:51:47.736Z,21.50
2022-08-25T05:54:15.444Z,21.60
2022-08-25T05:56:43.393Z,21.60
2022-08-25T05:59:11.128Z,21.80
2022-08-25T06:01:56.786Z,21.90
2022-08-25T06:04:26.436Z,22.10
2022-08-25T06:06:54.869Z,22.40
2022-08-25T06:09:23.334Z,22.60
2022-08-25T06:11:55.210Z,22.80
2022-08-25T06:14:23.871Z,23.20
2022-08-25T06:16:52.276Z,23.50
2022-08-25T06:19:20.170Z,23.80
2022-08-25T06:21:47.391Z,24.20
2022-08-25T06:24:17.115Z,24.40
2022-08-25T06:26:46.490Z,24.60
2022-08-25T06:29:14.670Z,24.80
2022-08-25T06:31:43.793Z,25.10
2022-08-25T06:34:12.352Z,25.20
2022-08-25T06:36:43.161Z,25.20
2022-08-25T06:39:19.582Z,25.30
2022-08-25T06:41:53.551Z,25.50
2022-08-25T06:44:23.810Z,25.70
2022-08-25T06:46:51.969Z,25.80
2022-08-25T06:49:19.896Z,25.80
2022-08-25T06:51:47.531Z,25.80
2022-08-25T06:54:14.833Z,25.90
2022-08-25T06:56:43.110Z,25.60
2022-08-25T06:59:11.139Z,25.30
2022-08-25T07:01:39.175Z,25.10
2022-08-25T07:04:13.070Z,25.10
2022-08-25T07:06:44.977Z,25.30
2022-08-25T07:09:16.876Z,25.50
2022-08-25T07:11:47.478Z,25.60
2022-08-25T07:14:19.542Z,25.80
2022-08-25T07:16:50.437Z,25.90
2022-08-25T07:19:20.928Z,26.20
2022-08-25T07:21:52.130Z,26.50
2022-08-25T07:24:24.790Z,26.80
2022-08-25T07:26:55.010Z,27.10
2022-08-25T07:29:32.029Z,27.40
2022-08-25T07:32:07.101Z,27.50
2022-08-25T07:34:52.929Z,27.40
2022-08-25T07:37:47.562Z,27.50
2022-08-25T07:40:15.528Z,27.60
2022-08-25T07:42:43.496Z,27.90
2022-08-25T07:45:12.247Z,28.20
2022-08-25T07:47:42.930Z,28.60
2022-08-25T07:50:12.899Z,28.90
2022-08-25T07:52:41.999Z,28.90
2022-08-25T07:55:12.184Z,29.10
2022-08-25T07:57:50.922Z,29.50
2022-08-25T08:00:28.262Z,29.60
2022-08-25T08:02:56.755Z,30.50
2022-08-25T08:05:25.290Z,30.90
2022-08-25T08:07:53.882Z,31.40
2022-08-25T08:10:53.997Z,31.50
2022-08-25T08:13:10.319Z,31.80
2022-08-25T08:15:41.952Z,32.40
2022-08-25T08:18:10.919Z,32.80
2022-08-25T08:20:42.355Z,33.50
2022-08-25T08:23:11.828Z,34.10
2022-08-25T08:25:41.857Z,34.40
2022-08-25T08:28:11.363Z,34.90
2022-08-25T08:30:39.458Z,34.80
2022-08-25T08:33:10.078Z,34.20
2022-08-25T08:35:41.432Z,34.80
2022-08-25T08:38:17.219Z,35.10
2022-08-25T08:41:15.815Z,35.20
2022-08-25T08:43:43.724Z,35.20
2022-08-25T08:46:11.384Z,34.90
2022-08-25T08:49:16.299Z,34.80
2022-08-25T08:51:57.859Z,34.80
2022-08-25T08:54:28.659Z,34.80
2022-08-25T08:57:16.649Z,34.80
2022-08-25T08:59:56.984Z,34.90
2022-08-25T09:02:51.550Z,35.70
2022-08-25T09:05:22.703Z,36.20
2022-08-25T09:07:59.723Z,37.10
2022-08-25T09:10:42.675Z,37.40
2022-08-25T09:13:26.134Z,37.40
2022-08-25T09:16:33.082Z,37.80
2022-08-25T09:19:21.287Z,37.60
2022-08-25T09:22:02.063Z,38.70
2022-08-25T09:24:34.951Z,38.10
2022-08-25T09:27:19.307Z,38.40
2022-08-25T09:30:14.472Z,38.30
2022-08-25T09:32:52.575Z,39.10
2022-08-25T09:35:32.233Z,39.70
2022-08-25T09:38:11.000Z,40.50
2022-08-25T09:40:43.209Z,40.10
2022-08-25T09:43:40.318Z,40.50
2022-08-25T09:46:24.017Z,39.90
2022-08-25T09:48:57.758Z,40.00
2022-08-25T09:51:38.018Z,39.90
2022-08-25T09:54:25.381Z,40.50
2022-08-25T09:56:54.685Z,40.70
2022-08-25T09:59:34.383Z,40.60
2022-08-25T10:02:25.805Z,40.00
2022-08-25T10:04:53.770Z,40.70
2022-08-25T10:07:33.313Z,40.70
2022-08-25T10:10:16.306Z,41.10
2022-08-25T10:12:51.201Z,41.40
2022-08-25T10:15:29.946Z,41.90
2022-08-25T10:18:34.236Z,41.80
2022-08-25T10:21:17.448Z,42.30
2022-08-25T10:23:52.754Z,42.10
2022-08-25T10:27:01.339Z,42.30
2022-08-25T10:30:08.508Z,42.60
2022-08-25T10:32:44.541Z,42.40
2022-08-25T10:35:23.284Z,42.30
2022-08-25T10:38:08.424Z,42.30
2022-08-25T10:41:10.001Z,42.50
2022-08-25T10:43:42.992Z,42.60
2022-08-25T10:46:33.470Z,42.80
2022-08-25T10:49:16.302Z,43.30
2022-08-25T10:52:02.325Z,43.20
2022-08-25T10:54:46.280Z,43.30
2022-08-25T10:57:37.171Z,43.30
2022-08-25T11:00:17.569Z,42.20
2022-08-25T11:03:11.824Z,40.40
2022-08-25T11:06:04.522Z,40.60
2022-08-25T11:08:40.086Z,41.00
2022-08-25T11:11:30.408Z,41.30
2022-08-25T11:14:12.211Z,41.60
2022-08-25T11:16:42.136Z,41.10
2022-08-25T11:19:15.748Z,41.50
2022-08-25T11:21:46.516Z,41.20
2022-08-25T11:24:23.958Z,41.30
2022-08-25T11:26:56.162Z,41.60
2022-08-25T11:29:28.970Z,41.60
2022-08-25T11:32:01.218Z,41.00
2022-08-25T11:34:34.955Z,40.60
2022-08-25T11:37:28.454Z,40.70
2022-08-25T11:40:14.279Z,41.10
2022-08-25T11:43:00.331Z,41.40
2022-08-25T11:45:55.762Z,41.00
2022-08-25T11:48:34.364Z,40.50
2022-08-25T11:51:44.475Z,40.10
2022-08-25T11:54:21.632Z,40.80
2022-08-25T11:56:59.322Z,40.20
2022-08-25T12:00:04.024Z,39.80
2022-08-25T12:02:48.044Z,40.00
2022-08-25T12:05:26.395Z,39.90
2022-08-25T12:08:15.112Z,40.40
2022-08-25T12:11:10.838Z,41.00
2022-08-25T12:13:51.753Z,41.40
2022-08-25T12:16:36.270Z,41.60
2022-08-25T12:19:36.877Z,41.50
2022-08-25T12:22:05.584Z,41.90
2022-08-25T12:24:52.397Z,41.40
2022-08-25T12:27:33.597Z,41.00
2022-08-25T12:30:32.925Z,41.00
2022-08-25T12:33:23.942Z,40.50
2022-08-25T12:36:00.989Z,40.40
2022-08-25T12:38:50.950Z,40.30
2022-08-25T12:41:33.579Z,39.30
2022-08-25T12:44:36.083Z,39.10
2022-08-25T12:47:13.829Z,38.10
2022-08-25T12:49:41.276Z,38.10
2022-08-25T12:52:26.056Z,38.00
2022-08-25T12:55:03.713Z,38.70
2022-08-25T12:57:57.794Z,39.00
2022-08-25T13:00:33.220Z,38.50
2022-08-25T13:03:07.150Z,37.40
2022-08-25T13:06:02.024Z,36.90
2022-08-25T13:09:01.044Z,36.20
2022-08-25T13:11:43.208Z,36.50
2022-08-25T13:14:21.767Z,36.90
2022-08-25T13:17:00.983Z,37.20
2022-08-25T13:19:34.616Z,37.90
2022-08-25T13:22:15.589Z,38.50
2022-08-25T13:24:47.453Z,38.60
2022-08-25T13:27:24.935Z,38.60
2022-08-25T13:29:58.112Z,39.10
2022-08-25T13:32:38.933Z,39.40
2022-08-25T13:35:32.479Z,39.10
2022-08-25T13:38:19.295Z,38.40
2022-08-25T13:40:47.313Z,37.30
2022-08-25T13:43:15.631Z,36.40
2022-08-25T13:45:48.120Z,36.00
2022-08-25T13:48:39.243Z,35.80
2022-08-25T13:51:22.468Z,35.90
2022-08-25T13:54:06.215Z,36.20
2022-08-25T13:56:41.634Z,36.40
2022-08-25T13:59:28.751Z,36.40
2022-08-25T14:02:00.005Z,36.10
2022-08-25T14:04:33.586Z,35.90
2022-08-25T14:07:19.302Z,35.80
2022-08-25T14:09:52.846Z,35.80
2022-08-25T14:12:31.278Z,35.40
2022-08-25T14:15:02.047Z,35.40
2022-08-25T14:17:39.731Z,35.00
2022-08-25T14:20:19.157Z,34.80
2022-08-25T14:22:46.750Z,34.60
2022-08-25T14:25:17.650Z,34.10
2022-08-25T14:28:06.485Z,33.60
2022-08-25T14:30:45.997Z,33.10
2022-08-25T14:33:15.382Z,33.10
2022-08-25T14:35:45.909Z,33.20
2022-08-25T14:38:15.836Z,33.30
2022-08-25T14:40:45.130Z,33.30
2022-08-25T14:43:13.296Z,33.20
2022-08-25T14:45:43.671Z,33.30
2022-08-25T14:48:24.222Z,33.30
2022-08-25T14:50:53.609Z,33.10
2022-08-25T14:53:25.772Z,33.40
2022-08-25T14:55:58.735Z,33.70
2022-08-25T14:58:33.980Z,33.90
2022-08-25T15:01:03.384Z,33.70
2022-08-25T15:03:38.482Z,33.40
2022-08-25T15:06:20.141Z,33.20
2022-08-25T15:09:10.810Z,33.10
2022-08-25T15:11:44.465Z,33.00
2022-08-25T15:14:16.190Z,33.20
2022-08-25T15:16:55.469Z,33.40
2022-08-25T15:19:26.888Z,33.50
2022-08-25T15:21:58.144Z,33.60
2022-08-25T15:24:28.381Z,33.70
2022-08-25T15:26:59.150Z,33.70
2022-08-25T15:29:30.065Z,33.80
2022-08-25T15:31:58.857Z,33.70
2022-08-25T15:34:30.169Z,33.40
2022-08-25T15:36:59.797Z,33.30
2022-08-25T15:39:27.876Z,33.30
2022-08-25T15:42:00.444Z,33.30
2022-08-25T15:44:31.338Z,33.30
2022-08-25T15:46:59.559Z,33.40
2022-08-25T15:49:29.742Z,33.40
2022-08-25T15:51:58.989Z,33.40
2022-08-25T15:54:27.592Z,33.40
2022-08-25T15:56:56.606Z,33.20
2022-08-25T15:59:27.868Z,33.20
2022-08-25T16:01:55.411Z,33.30
2022-08-25T16:04:25.335Z,33.10
2022-08-25T16:06:54.066Z,33.00
2022-08-25T16:09:26.735Z,32.80
2022-08-25T16:11:56.948Z,32.60
2022-08-25T16:14:26.104Z,32.50
2022-08-25T16:16:58.691Z,32.40
2022-08-25T16:19:30.191Z,32.20
2022-08-25T16:21:59.898Z,32.20
2022-08-25T16:24:30.306Z,32.20
2022-08-25T16:27:10.919Z,32.00
2022-08-25T16:29:42.569Z,31.90
2022-08-25T16:32:13.429Z,31.80
2022-08-25T16:34:42.460Z,31.70
2022-08-25T16:37:09.913Z,31.60
2022-08-25T16:39:44.111Z,31.50
2022-08-25T16:42:12.826Z,31.50
2022-08-25T16:44:42.831Z,31.20
2022-08-25T16:47:14.532Z,30.90
2022-08-25T16:49:46.316Z,30.80
2022-08-25T16:52:34.831Z,30.70
2022-08-25T16:55:16.412Z,30.70
2022-08-25T16:57:49.828Z,30.50
2022-08-25T17:00:19.469Z,30.20
2022-08-25T17:02:47.256Z,30.20
2022-08-25T17:05:14.831Z,30.10
2022-08-25T17:07:42.209Z,30.10
2022-08-25T17:10:12.839Z,30.00
2022-08-25T17:12:42.411Z,29.90
2022-08-25T17:15:12.033Z,29.80
2022-08-25T17:17:41.969Z,29.80
2022-08-25T17:20:09.490Z,29.80
2022-08-25T17:22:37.172Z,29.90
2022-08-25T17:25:07.111Z,29.80
2022-08-25T17:27:34.829Z,29.70
2022-08-25T17:30:04.902Z,29.70
2022-08-25T17:32:32.183Z,29.50
2022-08-25T17:34:59.998Z,29.40
2022-08-25T17:37:27.850Z,29.30
2022-08-25T17:39:56.806Z,29.20
2022-08-25T17:42:34.078Z,29.00
2022-08-25T17:45:01.817Z,28.90
2022-08-25T17:47:29.153Z,28.90
2022-08-25T17:49:56.871Z,28.70
2022-08-25T17:52:25.514Z,28.60
2022-08-25T17:54:55.664Z,28.60
2022-08-25T17:57:26.273Z,28.60
2022-08-25T17:59:55.003Z,28.50
2022-08-25T18:02:24.846Z,28.40
2022-08-25T18:04:55.647Z,28.40
2022-08-25T18:07:25.903Z,28.10
2022-08-25T18:09:54.047Z,28.00
2022-08-25T18:12:27.511Z,28.10
2022-08-25T18:14:55.371Z,28.10
2022-08-25T18:17:25.347Z,28.00
2022-08-25T18:19:53.774Z,28.00
2022-08-25T18:22:21.506Z,28.00
2022-08-25T18:24:51.412Z,28.10
2022-08-25T18:27:21.701Z,28.10
2022-08-25T18:29:49.482Z,28.00
2022-08-25T18:32:20.577Z,27.90
2022-08-25T18:34:53.642Z,27.80
2022-08-25T18:37:39.697Z,27.80
2022-08-25T18:40:23.641Z,27.80
2022-08-25T18:42:54.007Z,27.90
2022-08-25T18:45:25.179Z,27.90
2022-08-25T18:47:57.486Z,27.80
2022-08-25T18:50:35.625Z,27.80
2022-08-25T18:53:06.284Z,27.60
2022-08-25T18:55:34.038Z,27.40
2022-08-25T18:58:01.774Z,27.30
2022-08-25T19:00:33.807Z,27.30
2022-08-25T19:03:03.884Z,27.20
2022-08-25T19:05:35.504Z,27.00
2022-08-25T19:08:08.925Z,26.80
2022-08-25T19:10:37.253Z,26.70
2022-08-25T19:13:08.197Z,26.50
2022-08-25T19:15:37.805Z,26.40
2022-08-25T19:18:09.935Z,26.30
2022-08-25T19:20:42.591Z,26.20
2022-08-25T19:23:10.440Z,26.10
2022-08-25T19:25:41.766Z,26.00
2022-08-25T19:28:12.192Z,26.00
2022-08-25T19:30:39.884Z,25.90
2022-08-25T19:33:42.270Z,25.90
2022-08-25T19:36:09.779Z,25.80
2022-08-25T19:38:38.129Z,25.80
2022-08-25T19:41:14.109Z,25.80
2022-08-25T19:43:55.165Z,25.70
2022-08-25T19:46:35.264Z,25.60
2022-08-25T19:49:26.335Z,25.50
2022-08-25T19:51:55.738Z,25.40
2022-08-25T19:54:34.148Z,25.40
2022-08-25T19:57:03.651Z,25.40
2022-08-25T19:59:40.630Z,25.40
2022-08-25T20:02:18.175Z,25.40
2022-08-25T20:04:53.022Z,25.30
2022-08-25T20:07:23.739Z,25.30
2022-08-25T20:09:53.527Z,25.20
2022-08-25T20:12:23.694Z,25.30
2022-08-25T20:14:55.271Z,25.30
2022-08-25T20:17:26.210Z,25.40
2022-08-25T20:20:01.063Z,25.30
2022-08-25T20:22:31.357Z,25.30
2022-08-25T20:25:03.123Z,25.40
2022-08-25T20:27:41.531Z,25.50
2022-08-25T20:30:16.751Z,25.40
2022-08-25T20:32:47.359Z,25.40
2022-08-25T20:35:15.148Z,25.40
2022-08-25T20:37:46.347Z,25.30
2022-08-25T20:40:20.769Z,25.30
2022-08-25T20:42:57.064Z,25.40
2022-08-25T20:45:24.967Z,25.60
2022-08-25T20:47:53.030Z,25.60
2022-08-25T20:50:23.615Z,25.50
2022-08-25T20:52:52.791Z,25.40
2022-08-25T20:55:21.749Z,25.40
2022-08-25T20:57:49.210Z,25.40
2022-08-25T21:00:19.652Z,25.40
2022-08-25T21:02:52.808Z,25.40
2022-08-25T21:05:20.777Z,25.50
2022-08-25T21:07:48.371Z,25.50
2022-08-25T21:10:16.809Z,25.50
2022-08-25T21:12:45.127Z,25.50
2022-08-25T21:15:15.342Z,25.40
2022-08-25T21:17:50.576Z,25.30
2022-08-25T21:20:23.631Z,25.20
2022-08-25T21:22:54.355Z,25.10
2022-08-25T21:25:22.130Z,25.00
2022-08-25T21:27:54.491Z,25.00
2022-08-25T21:30:22.367Z,25.00
2022-08-25T21:32:53.551Z,25.00
2022-08-25T21:35:31.060Z,25.10
2022-08-25T21:38:00.964Z,25.10
2022-08-25T21:40:33.798Z,25.10
2022-08-25T21:43:01.947Z,25.10
2022-08-25T21:45:43.258Z,25.10
2022-08-25T21:48:17.778Z,25.10
2022-08-25T21:50:48.056Z,25.10
2022-08-25T21:53:17.907Z,25.10
2022-08-25T21:55:45.213Z,25.10
2022-08-25T21:58:14.698Z,25.00
2022-08-25T22:00:43.742Z,24.90
2022-08-25T22:03:11.399Z,25.00
2022-08-25T22:05:39.360Z,25.00
2022-08-25T22:08:07.921Z,25.00
2022-08-25T22:10:46.255Z,24.80
2022-08-25T22:13:18.818Z,24.50
2022-08-25T22:15:51.883Z,24.60
2022-08-25T22:18:19.760Z,24.70
2022-08-25T22:20:47.159Z,24.70
2022-08-25T22:23:20.294Z,24.60
2022-08-25T22:25:48.386Z,24.40
2022-08-25T22:28:15.996Z,24.20
2022-08-25T22:30:43.270Z,24.10
2022-08-25T22:33:13.113Z,24.20
2022-08-25T22:35:40.439Z,24.10
2022-08-25T22:38:12.464Z,24.10
2022-08-25T22:40:40.589Z,24.10
2022-08-25T22:43:10.946Z,24.10
2022-08-25T22:45:38.463Z,24.10
2022-08-25T22:48:08.463Z,24.10
2022-08-25T22:50:37.058Z,24.20
2022-08-25T22:53:04.481Z,24.20
2022-08-25T22:55:32.724Z,24.20
2022-08-25T22:58:00.369Z,24.10
2022-08-25T23:00:29.028Z,24.10
2022-08-25T23:02:58.870Z,24.10
2022-08-25T23:05:26.087Z,24.20
2022-08-25T23:07:55.213Z,24.30
2022-08-25T23:10:23.565Z,24.20
2022-08-25T23:12:52.327Z,24.30
2022-08-25T23:15:20.535Z,24.10
2022-08-25T23:17:47.766Z,24.10
2022-08-25T23:20:36.125Z,23.90
2022-08-25T23:23:13.787Z,24.00
2022-08-25T23:25:41.276Z,24.10
2022-08-25T23:28:09.341Z,24.00
2022-08-25T23:30:39.384Z,24.00
2022-08-25T23:33:15.591Z,24.00
2022-08-25T23:35:50.129Z,23.80
2022-08-25T23:38:20.446Z,23.80
2022-08-25T23:40:50.154Z,23.90
2022-08-25T23:43:20.142Z,23.80
2022-08-25T23:45:50.071Z,23.80
2022-08-25T23:48:21.261Z,23.80
2022-08-25T23:50:49.101Z,23.90
2022-08-25T23:53:28.013Z,24.00
2022-08-25T23:55:57.662Z,24.00
2022-08-25T23:58:27.361Z,24.00
